sensor_id;sensor_type;location;lat;lon;timestamp;temperature;humidity
21744;DHT22;11034;48.556;9.342;2024-03-29T00:01:24;7.20;99.90
21744;DHT22;11034;48.556;9.342;2024-03-29T00:03:50;7.30;99.90
21744;DHT22;11034;48.556;9.342;2024-03-29T00:06:16;7.30;99.90
21744;DHT22;11034;48.556;9.342;2024-03-29T00:08:42;7.30;99.90
21744;DHT22;11034;48.556;9.342;2024-03-29T00:11:10;7.40;99.90
21744;DHT22;11034;48.556;9.342;2024-03-29T00:13:36;7.40;99.90
21744;DHT22;11034;48.556;9.342;2024-03-29T00:16:02;7.40;99.90
21744;DHT22;11034;48.556;9.342;2024-03-29T00:18:29;7.40;99.90
21744;DHT22;11034;48.556;9.342;2024-03-29T00:20:55;7.50;99.90
21744;DHT22;11034;48.556;9.342;2024-03-29T00:23:21;7.50;99.90
21744;DHT22;11034;48.556;9.342;2024-03-29T00:25:48;7.50;99.90
21744;DHT22;11034;48.556;9.342;2024-03-29T00:28:15;7.50;99.90
21744;DHT22;11034;48.556;9.342;2024-03-29T00:30:41;7.70;99.90
21744;DHT22;11034;48.556;9.342;2024-03-29T00:33:07;7.70;99.90
21744;DHT22;11034;48.556;9.342;2024-03-29T00:35:34;7.80;99.90
21744;DHT22;11034;48.556;9.342;2024-03-29T00:38:00;7.80;99.90
21744;DHT22;11034;48.556;9.342;2024-03-29T00:40:26;7.90;99.90
21744;DHT22;11034;48.556;9.342;2024-03-29T00:42:52;7.90;99.90
21744;DHT22;11034;48.556;9.342;2024-03-29T00:45:20;7.90;99.90
21744;DHT22;11034;48.556;9.342;2024-03-29T00:47:46;7.90;99.90
21744;DHT22;11034;48.556;9.342;2024-03-29T00:50:13;7.80;99.90
21744;DHT22;11034;48.556;9.342;2024-03-29T00:52:39;7.70;99.90
21744;DHT22;11034;48.556;9.342;2024-03-29T00:55:06;7.70;99.90
21744;DHT22;11034;48.556;9.342;2024-03-29T00:57:32;7.70;99.90
21744;DHT22;11034;48.556;9.342;2024-03-29T00:59:58;7.70;99.90
21744;DHT22;11034;48.556;9.342;2024-03-29T01:02:25;7.80;99.90
21744;DHT22;11034;48.556;9.342;2024-03-29T01:04:52;7.60;99.90
21744;DHT22;11034;48.556;9.342;2024-03-29T01:07:18;7.60;99.90
21744;DHT22;11034;48.556;9.342;2024-03-29T01:09:44;7.60;99.90
21744;DHT22;11034;48.556;9.342;2024-03-29T01:12:10;7.80;99.90
21744;DHT22;11034;48.556;9.342;2024-03-29T01:14:37;7.80;99.90
21744;DHT22;11034;48.556;9.342;2024-03-29T01:17:03;7.70;99.90
21744;DHT22;11034;48.556;9.342;2024-03-29T01:19:31;7.80;99.90
21744;DHT22;11034;48.556;9.342;2024-03-29T01:21:57;7.80;99.90
21744;DHT22;11034;48.556;9.342;2024-03-29T01:24:23;7.70;99.90
21744;DHT22;11034;48.556;9.342;2024-03-29T01:26:50;7.60;99.90
21744;DHT22;11034;48.556;9.342;2024-03-29T01:29:16;7.40;99.90
21744;DHT22;11034;48.556;9.342;2024-03-29T01:31:42;7.30;99.90
21744;DHT22;11034;48.556;9.342;2024-03-29T01:34:08;7.40;99.90
21744;DHT22;11034;48.556;9.342;2024-03-29T01:36:36;7.40;99.90
21744;DHT22;11034;48.556;9.342;2024-03-29T01:39:02;7.50;99.90
21744;DHT22;11034;48.556;9.342;2024-03-29T01:41:28;7.60;99.90
21744;DHT22;11034;48.556;9.342;2024-03-29T01:43:54;7.50;99.90
21744;DHT22;11034;48.556;9.342;2024-03-29T01:46:23;7.50;99.90
21744;DHT22;11034;48.556;9.342;2024-03-29T01:48:51;7.50;99.90
21744;DHT22;11034;48.556;9.342;2024-03-29T01:51:21;7.60;99.90
21744;DHT22;11034;48.556;9.342;2024-03-29T01:53:51;7.60;99.90
21744;DHT22;11034;48.556;9.342;2024-03-29T01:56:20;7.70;99.90
21744;DHT22;11034;48.556;9.342;2024-03-29T01:58:49;7.60;99.90
21744;DHT22;11034;48.556;9.342;2024-03-29T02:01:16;7.60;99.90
21744;DHT22;11034;48.556;9.342;2024-03-29T02:03:45;7.80;99.90
21744;DHT22;11034;48.556;9.342;2024-03-29T02:06:13;7.90;99.90
21744;DHT22;11034;48.556;9.342;2024-03-29T02:08:41;7.90;99.90
21744;DHT22;11034;48.556;9.342;2024-03-29T02:11:09;7.90;99.90
21744;DHT22;11034;48.556;9.342;2024-03-29T02:13:36;8.00;99.90
21744;DHT22;11034;48.556;9.342;2024-03-29T02:16:04;8.00;99.90
21744;DHT22;11034;48.556;9.342;2024-03-29T02:18:31;8.10;99.90
21744;DHT22;11034;48.556;9.342;2024-03-29T02:20:57;8.10;99.90
21744;DHT22;11034;48.556;9.342;2024-03-29T02:23:26;8.10;99.90
21744;DHT22;11034;48.556;9.342;2024-03-29T02:25:56;8.20;99.90
21744;DHT22;11034;48.556;9.342;2024-03-29T02:28:23;8.10;99.90
21744;DHT22;11034;48.556;9.342;2024-03-29T02:30:51;8.10;99.90
21744;DHT22;11034;48.556;9.342;2024-03-29T02:33:20;8.20;99.90
21744;DHT22;11034;48.556;9.342;2024-03-29T02:35:47;8.20;99.90
21744;DHT22;11034;48.556;9.342;2024-03-29T02:38:14;8.40;99.90
21744;DHT22;11034;48.556;9.342;2024-03-29T02:40:41;8.40;99.90
21744;DHT22;11034;48.556;9.342;2024-03-29T02:43:10;8.50;99.90
21744;DHT22;11034;48.556;9.342;2024-03-29T02:45:37;8.60;99.90
21744;DHT22;11034;48.556;9.342;2024-03-29T02:48:04;8.50;99.90
21744;DHT22;11034;48.556;9.342;2024-03-29T02:50:31;8.60;99.90
21744;DHT22;11034;48.556;9.342;2024-03-29T02:52:57;8.50;99.90
21744;DHT22;11034;48.556;9.342;2024-03-29T02:55:24;8.50;99.90
21744;DHT22;11034;48.556;9.342;2024-03-29T02:57:50;8.60;99.90
21744;DHT22;11034;48.556;9.342;2024-03-29T03:00:19;8.60;99.90
21744;DHT22;11034;48.556;9.342;2024-03-29T03:02:45;8.60;99.90
21744;DHT22;11034;48.556;9.342;2024-03-29T03:05:12;8.60;99.90
21744;DHT22;11034;48.556;9.342;2024-03-29T03:07:38;8.70;99.90
21744;DHT22;11034;48.556;9.342;2024-03-29T03:10:23;8.80;99.90
21744;DHT22;11034;48.556;9.342;2024-03-29T03:13:07;8.80;99.90
21744;DHT22;11034;48.556;9.342;2024-03-29T03:15:36;8.80;99.90
21744;DHT22;11034;48.556;9.342;2024-03-29T03:18:03;8.70;99.90
21744;DHT22;11034;48.556;9.342;2024-03-29T03:20:30;8.90;99.90
21744;DHT22;11034;48.556;9.342;2024-03-29T03:22:57;8.90;99.90
21744;DHT22;11034;48.556;9.342;2024-03-29T03:25:25;8.90;99.90
21744;DHT22;11034;48.556;9.342;2024-03-29T03:27:51;8.80;99.90
21744;DHT22;11034;48.556;9.342;2024-03-29T03:30:18;8.60;99.90
21744;DHT22;11034;48.556;9.342;2024-03-29T03:32:45;8.60;99.90
21744;DHT22;11034;48.556;9.342;2024-03-29T03:35:12;8.60;99.90
21744;DHT22;11034;48.556;9.342;2024-03-29T03:37:39;8.50;99.90
21744;DHT22;11034;48.556;9.342;2024-03-29T03:40:07;8.50;99.90
21744;DHT22;11034;48.556;9.342;2024-03-29T03:42:33;8.40;99.90
21744;DHT22;11034;48.556;9.342;2024-03-29T03:45:00;8.30;99.90
21744;DHT22;11034;48.556;9.342;2024-03-29T03:47:26;8.20;99.90
21744;DHT22;11034;48.556;9.342;2024-03-29T03:49:55;8.10;99.90
21744;DHT22;11034;48.556;9.342;2024-03-29T03:52:21;8.10;99.90
21744;DHT22;11034;48.556;9.342;2024-03-29T03:54:48;8.10;99.90
21744;DHT22;11034;48.556;9.342;2024-03-29T03:57:14;8.30;99.90
21744;DHT22;11034;48.556;9.342;2024-03-29T03:59:41;8.40;99.90
21744;DHT22;11034;48.556;9.342;2024-03-29T04:02:07;8.50;99.90
21744;DHT22;11034;48.556;9.342;2024-03-29T04:04:34;8.70;99.90
21744;DHT22;11034;48.556;9.342;2024-03-29T04:07:02;9.10;99.90
21744;DHT22;11034;48.556;9.342;2024-03-29T04:09:29;9.00;99.90
21744;DHT22;11034;48.556;9.342;2024-03-29T04:11:55;9.10;99.90
21744;DHT22;11034;48.556;9.342;2024-03-29T04:14:22;9.10;99.90
21744;DHT22;11034;48.556;9.342;2024-03-29T04:16:48;9.10;99.90
21744;DHT22;11034;48.556;9.342;2024-03-29T04:19:15;9.30;99.90
21744;DHT22;11034;48.556;9.342;2024-03-29T04:21:41;9.40;99.90
21744;DHT22;11034;48.556;9.342;2024-03-29T04:24:10;9.50;99.90
21744;DHT22;11034;48.556;9.342;2024-03-29T04:26:36;9.60;99.90
21744;DHT22;11034;48.556;9.342;2024-03-29T04:29:04;9.60;99.90
21744;DHT22;11034;48.556;9.342;2024-03-29T04:31:30;9.60;99.90
21744;DHT22;11034;48.556;9.342;2024-03-29T04:33:57;9.60;99.90
21744;DHT22;11034;48.556;9.342;2024-03-29T04:36:23;9.60;99.90
21744;DHT22;11034;48.556;9.342;2024-03-29T04:38:50;9.50;99.90
21744;DHT22;11034;48.556;9.342;2024-03-29T04:41:20;9.60;99.90
21744;DHT22;11034;48.556;9.342;2024-03-29T04:43:47;9.70;99.90
21744;DHT22;11034;48.556;9.342;2024-03-29T04:46:14;9.60;99.90
21744;DHT22;11034;48.556;9.342;2024-03-29T04:48:42;9.70;99.90
21744;DHT22;11034;48.556;9.342;2024-03-29T04:51:12;9.70;99.90
21744;DHT22;11034;48.556;9.342;2024-03-29T04:53:39;9.70;99.90
21744;DHT22;11034;48.556;9.342;2024-03-29T04:56:07;9.70;99.90
21744;DHT22;11034;48.556;9.342;2024-03-29T04:58:35;9.70;99.90
21744;DHT22;11034;48.556;9.342;2024-03-29T05:01:03;9.70;99.90
21744;DHT22;11034;48.556;9.342;2024-03-29T05:03:30;9.70;99.90
21744;DHT22;11034;48.556;9.342;2024-03-29T05:05:57;10.00;99.90
21744;DHT22;11034;48.556;9.342;2024-03-29T05:08:24;9.90;99.90
21744;DHT22;11034;48.556;9.342;2024-03-29T05:10:51;9.80;99.90
21744;DHT22;11034;48.556;9.342;2024-03-29T05:13:19;9.70;99.90
21744;DHT22;11034;48.556;9.342;2024-03-29T05:15:48;9.60;99.90
21744;DHT22;11034;48.556;9.342;2024-03-29T05:18:15;9.70;99.90
21744;DHT22;11034;48.556;9.342;2024-03-29T05:20:42;9.60;99.90
21744;DHT22;11034;48.556;9.342;2024-03-29T05:23:13;9.50;99.90
21744;DHT22;11034;48.556;9.342;2024-03-29T05:25:41;9.50;99.90
21744;DHT22;11034;48.556;9.342;2024-03-29T05:28:09;9.50;99.90
21744;DHT22;11034;48.556;9.342;2024-03-29T05:30:36;9.50;99.90
21744;DHT22;11034;48.556;9.342;2024-03-29T05:33:05;9.60;99.90
21744;DHT22;11034;48.556;9.342;2024-03-29T05:35:33;9.60;99.90
21744;DHT22;11034;48.556;9.342;2024-03-29T05:38:01;9.70;99.90
21744;DHT22;11034;48.556;9.342;2024-03-29T05:40:28;9.80;99.90
21744;DHT22;11034;48.556;9.342;2024-03-29T05:42:55;9.80;99.90
21744;DHT22;11034;48.556;9.342;2024-03-29T05:45:24;9.80;99.90
21744;DHT22;11034;48.556;9.342;2024-03-29T05:47:56;9.70;99.90
21744;DHT22;11034;48.556;9.342;2024-03-29T05:50:25;9.70;99.90
21744;DHT22;11034;48.556;9.342;2024-03-29T05:52:53;9.60;99.90
21744;DHT22;11034;48.556;9.342;2024-03-29T05:55:20;9.60;99.90
21744;DHT22;11034;48.556;9.342;2024-03-29T05:57:47;9.70;99.90
21744;DHT22;11034;48.556;9.342;2024-03-29T06:00:15;9.70;99.90
21744;DHT22;11034;48.556;9.342;2024-03-29T06:02:42;9.80;99.90
21744;DHT22;11034;48.556;9.342;2024-03-29T06:05:10;9.80;99.90
21744;DHT22;11034;48.556;9.342;2024-03-29T06:07:39;9.90;99.90
21744;DHT22;11034;48.556;9.342;2024-03-29T06:10:09;9.90;99.90
21744;DHT22;11034;48.556;9.342;2024-03-29T06:12:36;10.00;99.90
21744;DHT22;11034;48.556;9.342;2024-03-29T06:15:06;10.10;99.90
21744;DHT22;11034;48.556;9.342;2024-03-29T06:17:50;10.30;99.90
21744;DHT22;11034;48.556;9.342;2024-03-29T06:20:18;10.40;99.90
21744;DHT22;11034;48.556;9.342;2024-03-29T06:22:46;10.60;99.90
21744;DHT22;11034;48.556;9.342;2024-03-29T06:25:13;10.70;99.90
21744;DHT22;11034;48.556;9.342;2024-03-29T06:27:41;10.80;99.90
21744;DHT22;11034;48.556;9.342;2024-03-29T06:30:13;11.00;99.90
21744;DHT22;11034;48.556;9.342;2024-03-29T06:32:41;11.10;99.90
21744;DHT22;11034;48.556;9.342;2024-03-29T06:35:09;11.00;99.90
21744;DHT22;11034;48.556;9.342;2024-03-29T06:37:36;11.00;99.90
21744;DHT22;11034;48.556;9.342;2024-03-29T06:40:06;11.00;99.90
21744;DHT22;11034;48.556;9.342;2024-03-29T06:42:34;11.10;99.90
21744;DHT22;11034;48.556;9.342;2024-03-29T06:45:01;11.20;99.90
21744;DHT22;11034;48.556;9.342;2024-03-29T06:47:28;11.30;99.90
21744;DHT22;11034;48.556;9.342;2024-03-29T06:49:55;11.50;99.90
21744;DHT22;11034;48.556;9.342;2024-03-29T06:52:22;11.60;99.90
21744;DHT22;11034;48.556;9.342;2024-03-29T06:54:49;11.60;99.90
21744;DHT22;11034;48.556;9.342;2024-03-29T06:57:18;11.50;99.90
21744;DHT22;11034;48.556;9.342;2024-03-29T06:59:49;11.50;99.90
21744;DHT22;11034;48.556;9.342;2024-03-29T07:02:16;11.50;99.90
21744;DHT22;11034;48.556;9.342;2024-03-29T07:04:43;11.50;99.90
21744;DHT22;11034;48.556;9.342;2024-03-29T07:07:10;11.50;99.90
21744;DHT22;11034;48.556;9.342;2024-03-29T07:09:38;11.50;99.90
21744;DHT22;11034;48.556;9.342;2024-03-29T07:12:06;11.50;99.90
21744;DHT22;11034;48.556;9.342;2024-03-29T07:14:35;11.40;99.90
21744;DHT22;11034;48.556;9.342;2024-03-29T07:17:02;11.40;99.90
21744;DHT22;11034;48.556;9.342;2024-03-29T07:19:29;11.30;99.90
21744;DHT22;11034;48.556;9.342;2024-03-29T07:21:56;11.20;99.90
21744;DHT22;11034;48.556;9.342;2024-03-29T07:24:23;11.00;99.90
21744;DHT22;11034;48.556;9.342;2024-03-29T07:26:52;10.80;99.90
21744;DHT22;11034;48.556;9.342;2024-03-29T07:29:20;10.80;99.90
21744;DHT22;11034;48.556;9.342;2024-03-29T07:31:48;10.70;99.90
21744;DHT22;11034;48.556;9.342;2024-03-29T07:34:15;10.70;99.90
21744;DHT22;11034;48.556;9.342;2024-03-29T07:36:42;10.80;99.90
21744;DHT22;11034;48.556;9.342;2024-03-29T07:39:09;10.80;99.90
21744;DHT22;11034;48.556;9.342;2024-03-29T07:41:37;10.80;99.90
21744;DHT22;11034;48.556;9.342;2024-03-29T07:44:04;10.80;99.90
21744;DHT22;11034;48.556;9.342;2024-03-29T07:46:33;10.90;99.90
21744;DHT22;11034;48.556;9.342;2024-03-29T07:49:02;11.00;99.90
21744;DHT22;11034;48.556;9.342;2024-03-29T07:51:29;10.90;99.90
21744;DHT22;11034;48.556;9.342;2024-03-29T07:53:56;10.90;99.90
21744;DHT22;11034;48.556;9.342;2024-03-29T07:56:24;11.00;99.90
21744;DHT22;11034;48.556;9.342;2024-03-29T07:58:52;11.10;99.90
21744;DHT22;11034;48.556;9.342;2024-03-29T08:01:20;11.30;99.90
21744;DHT22;11034;48.556;9.342;2024-03-29T08:03:49;11.40;99.90
21744;DHT22;11034;48.556;9.342;2024-03-29T08:06:18;11.40;99.90
21744;DHT22;11034;48.556;9.342;2024-03-29T08:08:45;11.50;99.90
21744;DHT22;11034;48.556;9.342;2024-03-29T08:11:12;11.60;99.90
21744;DHT22;11034;48.556;9.342;2024-03-29T08:13:40;11.60;99.90
21744;DHT22;11034;48.556;9.342;2024-03-29T08:16:07;11.70;99.90
21744;DHT22;11034;48.556;9.342;2024-03-29T08:18:35;11.80;99.90
21744;DHT22;11034;48.556;9.342;2024-03-29T08:21:02;11.90;99.90
21744;DHT22;11034;48.556;9.342;2024-03-29T08:23:32;11.90;99.90
21744;DHT22;11034;48.556;9.342;2024-03-29T08:25:59;12.00;99.90
21744;DHT22;11034;48.556;9.342;2024-03-29T08:28:26;12.10;99.90
21744;DHT22;11034;48.556;9.342;2024-03-29T08:31:00;12.20;99.90
21744;DHT22;11034;48.556;9.342;2024-03-29T08:33:27;12.30;99.90
21744;DHT22;11034;48.556;9.342;2024-03-29T08:35:56;12.40;99.90
21744;DHT22;11034;48.556;9.342;2024-03-29T08:38:23;12.50;99.90
21744;DHT22;11034;48.556;9.342;2024-03-29T08:40:52;12.50;99.90
21744;DHT22;11034;48.556;9.342;2024-03-29T08:43:19;12.50;99.90
21744;DHT22;11034;48.556;9.342;2024-03-29T08:45:47;12.60;99.90
21744;DHT22;11034;48.556;9.342;2024-03-29T08:48:14;12.70;99.90
21744;DHT22;11034;48.556;9.342;2024-03-29T08:50:41;13.00;99.90
21744;DHT22;11034;48.556;9.342;2024-03-29T08:53:08;13.10;99.90
21744;DHT22;11034;48.556;9.342;2024-03-29T08:55:36;13.30;99.90
21744;DHT22;11034;48.556;9.342;2024-03-29T08:58:06;13.50;99.90
21744;DHT22;11034;48.556;9.342;2024-03-29T09:00:33;13.60;99.90
21744;DHT22;11034;48.556;9.342;2024-03-29T09:03:00;13.50;99.90
21744;DHT22;11034;48.556;9.342;2024-03-29T09:05:28;13.40;99.90
21744;DHT22;11034;48.556;9.342;2024-03-29T09:07:55;13.30;99.90
21744;DHT22;11034;48.556;9.342;2024-03-29T09:10:23;13.10;99.90
21744;DHT22;11034;48.556;9.342;2024-03-29T09:12:50;13.00;99.90
21744;DHT22;11034;48.556;9.342;2024-03-29T09:15:19;12.90;99.90
21744;DHT22;11034;48.556;9.342;2024-03-29T09:17:46;12.90;99.90
21744;DHT22;11034;48.556;9.342;2024-03-29T09:20:13;12.90;99.90
21744;DHT22;11034;48.556;9.342;2024-03-29T09:22:40;12.40;99.90
21744;DHT22;11034;48.556;9.342;2024-03-29T09:25:08;12.50;99.90
21744;DHT22;11034;48.556;9.342;2024-03-29T09:27:39;12.30;99.90
21744;DHT22;11034;48.556;9.342;2024-03-29T09:30:10;12.20;99.90
21744;DHT22;11034;48.556;9.342;2024-03-29T09:32:39;12.00;99.90
21744;DHT22;11034;48.556;9.342;2024-03-29T09:35:08;12.10;99.90
21744;DHT22;11034;48.556;9.342;2024-03-29T09:37:35;11.80;99.90
21744;DHT22;11034;48.556;9.342;2024-03-29T09:40:04;11.60;99.90
21744;DHT22;11034;48.556;9.342;2024-03-29T09:42:32;11.50;99.90
21744;DHT22;11034;48.556;9.342;2024-03-29T09:44:59;11.60;99.90
21744;DHT22;11034;48.556;9.342;2024-03-29T09:47:31;11.60;99.90
21744;DHT22;11034;48.556;9.342;2024-03-29T09:50:03;11.70;99.90
21744;DHT22;11034;48.556;9.342;2024-03-29T09:52:31;11.90;99.90
21744;DHT22;11034;48.556;9.342;2024-03-29T09:55:00;12.10;99.90
21744;DHT22;11034;48.556;9.342;2024-03-29T09:57:27;12.30;99.90
21744;DHT22;11034;48.556;9.342;2024-03-29T09:59:56;12.50;99.90
21744;DHT22;11034;48.556;9.342;2024-03-29T10:02:29;12.40;99.90
21744;DHT22;11034;48.556;9.342;2024-03-29T10:04:57;12.40;99.90
21744;DHT22;11034;48.556;9.342;2024-03-29T10:07:30;12.20;99.90
21744;DHT22;11034;48.556;9.342;2024-03-29T10:09:58;12.00;99.90
21744;DHT22;11034;48.556;9.342;2024-03-29T10:12:27;12.20;99.90
21744;DHT22;11034;48.556;9.342;2024-03-29T10:14:55;12.20;99.90
21744;DHT22;11034;48.556;9.342;2024-03-29T10:17:34;12.00;99.90
21744;DHT22;11034;48.556;9.342;2024-03-29T10:20:04;12.10;99.90
21744;DHT22;11034;48.556;9.342;2024-03-29T10:22:40;12.20;99.90
21744;DHT22;11034;48.556;9.342;2024-03-29T10:25:08;12.30;99.90
21744;DHT22;11034;48.556;9.342;2024-03-29T10:27:35;12.40;99.90
21744;DHT22;11034;48.556;9.342;2024-03-29T10:30:02;12.60;99.90
21744;DHT22;11034;48.556;9.342;2024-03-29T10:32:30;12.70;99.90
21744;DHT22;11034;48.556;9.342;2024-03-29T10:34:57;12.90;99.90
21744;DHT22;11034;48.556;9.342;2024-03-29T10:37:28;13.00;99.90
21744;DHT22;11034;48.556;9.342;2024-03-29T10:40:00;13.10;99.90
21744;DHT22;11034;48.556;9.342;2024-03-29T10:42:28;13.20;99.90
21744;DHT22;11034;48.556;9.342;2024-03-29T10:44:56;13.10;99.90
21744;DHT22;11034;48.556;9.342;2024-03-29T10:47:24;13.00;99.90
21744;DHT22;11034;48.556;9.342;2024-03-29T10:49:53;13.30;99.90
21744;DHT22;11034;48.556;9.342;2024-03-29T10:52:21;13.40;99.90
21744;DHT22;11034;48.556;9.342;2024-03-29T10:54:48;13.40;99.90
21744;DHT22;11034;48.556;9.342;2024-03-29T10:57:22;13.40;99.90
21744;DHT22;11034;48.556;9.342;2024-03-29T10:59:54;13.50;99.90
21744;DHT22;11034;48.556;9.342;2024-03-29T11:02:33;13.40;99.90
21744;DHT22;11034;48.556;9.342;2024-03-29T11:05:05;13.40;99.90
21744;DHT22;11034;48.556;9.342;2024-03-29T11:07:35;13.10;99.90
21744;DHT22;11034;48.556;9.342;2024-03-29T11:10:06;13.20;99.90
21744;DHT22;11034;48.556;9.342;2024-03-29T11:12:41;13.30;99.90
21744;DHT22;11034;48.556;9.342;2024-03-29T11:15:13;13.20;99.90
21744;DHT22;11034;48.556;9.342;2024-03-29T11:17:43;13.30;99.90
21744;DHT22;11034;48.556;9.342;2024-03-29T11:20:10;13.50;99.90
21744;DHT22;11034;48.556;9.342;2024-03-29T11:22:42;13.40;99.90
21744;DHT22;11034;48.556;9.342;2024-03-29T11:25:10;13.60;99.90
21744;DHT22;11034;48.556;9.342;2024-03-29T11:27:40;13.70;99.90
21744;DHT22;11034;48.556;9.342;2024-03-29T11:30:08;13.60;99.90
21744;DHT22;11034;48.556;9.342;2024-03-29T11:32:37;13.90;99.90
21744;DHT22;11034;48.556;9.342;2024-03-29T11:35:05;14.10;99.90
21744;DHT22;11034;48.556;9.342;2024-03-29T11:37:41;14.00;99.90
21744;DHT22;11034;48.556;9.342;2024-03-29T11:40:11;13.90;99.90
21744;DHT22;11034;48.556;9.342;2024-03-29T11:42:44;14.00;99.90
21744;DHT22;11034;48.556;9.342;2024-03-29T11:45:11;14.20;99.90
21744;DHT22;11034;48.556;9.342;2024-03-29T11:47:39;14.20;99.90
21744;DHT22;11034;48.556;9.342;2024-03-29T11:50:08;14.20;99.90
21744;DHT22;11034;48.556;9.342;2024-03-29T11:52:38;14.10;99.90
21744;DHT22;11034;48.556;9.342;2024-03-29T11:55:05;14.20;99.90
21744;DHT22;11034;48.556;9.342;2024-03-29T11:57:33;14.20;99.90
21744;DHT22;11034;48.556;9.342;2024-03-29T12:00:09;14.30;99.90
21744;DHT22;11034;48.556;9.342;2024-03-29T12:02:37;14.60;99.90
21744;DHT22;11034;48.556;9.342;2024-03-29T12:05:07;14.90;99.90
21744;DHT22;11034;48.556;9.342;2024-03-29T12:07:35;14.90;99.90
21744;DHT22;11034;48.556;9.342;2024-03-29T12:10:02;15.30;99.90
21744;DHT22;11034;48.556;9.342;2024-03-29T12:12:30;15.80;99.90
21744;DHT22;11034;48.556;9.342;2024-03-29T12:15:03;15.70;99.90
21744;DHT22;11034;48.556;9.342;2024-03-29T12:17:32;15.90;99.90
21744;DHT22;11034;48.556;9.342;2024-03-29T12:19:59;16.30;99.90
21744;DHT22;11034;48.556;9.342;2024-03-29T12:22:31;16.30;99.90
21744;DHT22;11034;48.556;9.342;2024-03-29T12:24:58;16.20;99.90
21744;DHT22;11034;48.556;9.342;2024-03-29T12:27:25;16.10;99.90
21744;DHT22;11034;48.556;9.342;2024-03-29T12:29:53;16.10;99.90
21744;DHT22;11034;48.556;9.342;2024-03-29T12:32:20;15.80;99.90
21744;DHT22;11034;48.556;9.342;2024-03-29T12:34:48;16.00;99.90
21744;DHT22;11034;48.556;9.342;2024-03-29T12:37:15;15.90;99.90
21744;DHT22;11034;48.556;9.342;2024-03-29T12:39:42;15.80;99.90
21744;DHT22;11034;48.556;9.342;2024-03-29T12:42:11;15.40;99.90
21744;DHT22;11034;48.556;9.342;2024-03-29T12:44:38;15.60;99.90
21744;DHT22;11034;48.556;9.342;2024-03-29T12:47:06;16.00;99.90
21744;DHT22;11034;48.556;9.342;2024-03-29T12:49:33;16.10;99.90
21744;DHT22;11034;48.556;9.342;2024-03-29T12:52:05;16.00;99.90
21744;DHT22;11034;48.556;9.342;2024-03-29T12:54:32;16.10;99.90
21744;DHT22;11034;48.556;9.342;2024-03-29T12:56:59;16.10;99.90
21744;DHT22;11034;48.556;9.342;2024-03-29T12:59:28;16.10;99.90
21744;DHT22;11034;48.556;9.342;2024-03-29T13:01:55;16.30;99.90
21744;DHT22;11034;48.556;9.342;2024-03-29T13:04:23;16.60;99.90
21744;DHT22;11034;48.556;9.342;2024-03-29T13:06:50;16.70;99.90
21744;DHT22;11034;48.556;9.342;2024-03-29T13:09:19;16.40;99.90
21744;DHT22;11034;48.556;9.342;2024-03-29T13:11:46;16.10;99.90
21744;DHT22;11034;48.556;9.342;2024-03-29T13:14:13;16.00;99.90
21744;DHT22;11034;48.556;9.342;2024-03-29T13:16:40;16.10;99.90
21744;DHT22;11034;48.556;9.342;2024-03-29T13:19:08;16.00;99.90
21744;DHT22;11034;48.556;9.342;2024-03-29T13:21:35;16.10;99.90
21744;DHT22;11034;48.556;9.342;2024-03-29T13:24:03;16.10;99.90
21744;DHT22;11034;48.556;9.342;2024-03-29T13:26:31;16.00;99.90
21744;DHT22;11034;48.556;9.342;2024-03-29T13:28:59;16.10;99.90
21744;DHT22;11034;48.556;9.342;2024-03-29T13:31:26;16.10;99.90
21744;DHT22;11034;48.556;9.342;2024-03-29T13:33:54;16.00;99.90
21744;DHT22;11034;48.556;9.342;2024-03-29T13:36:29;16.00;99.90
21744;DHT22;11034;48.556;9.342;2024-03-29T13:38:56;16.10;99.90
21744;DHT22;11034;48.556;9.342;2024-03-29T13:41:23;16.20;99.90
21744;DHT22;11034;48.556;9.342;2024-03-29T13:43:53;16.20;99.90
21744;DHT22;11034;48.556;9.342;2024-03-29T13:46:20;16.00;99.90
21744;DHT22;11034;48.556;9.342;2024-03-29T13:48:47;16.00;99.90
21744;DHT22;11034;48.556;9.342;2024-03-29T13:51:14;16.10;99.90
21744;DHT22;11034;48.556;9.342;2024-03-29T13:53:42;16.10;99.90
21744;DHT22;11034;48.556;9.342;2024-03-29T13:56:09;16.20;99.90
21744;DHT22;11034;48.556;9.342;2024-03-29T13:58:36;16.10;99.90
21744;DHT22;11034;48.556;9.342;2024-03-29T14:01:05;16.20;99.90
21744;DHT22;11034;48.556;9.342;2024-03-29T14:03:32;16.40;99.90
21744;DHT22;11034;48.556;9.342;2024-03-29T14:05:59;16.40;99.90
21744;DHT22;11034;48.556;9.342;2024-03-29T14:08:26;16.40;99.90
21744;DHT22;11034;48.556;9.342;2024-03-29T14:10:54;16.30;99.90
21744;DHT22;11034;48.556;9.342;2024-03-29T14:13:21;16.30;99.90
21744;DHT22;11034;48.556;9.342;2024-03-29T14:15:48;16.40;99.90
21744;DHT22;11034;48.556;9.342;2024-03-29T14:18:16;16.40;99.90
21744;DHT22;11034;48.556;9.342;2024-03-29T14:20:43;16.40;99.90
21744;DHT22;11034;48.556;9.342;2024-03-29T14:23:11;16.40;99.90
21744;DHT22;11034;48.556;9.342;2024-03-29T14:25:40;16.40;99.90
21744;DHT22;11034;48.556;9.342;2024-03-29T14:28:08;16.50;99.90
21744;DHT22;11034;48.556;9.342;2024-03-29T14:30:35;16.40;99.90
21744;DHT22;11034;48.556;9.342;2024-03-29T14:33:03;16.60;99.90
21744;DHT22;11034;48.556;9.342;2024-03-29T14:35:34;16.60;99.90
21744;DHT22;11034;48.556;9.342;2024-03-29T14:38:01;16.60;99.90
21744;DHT22;11034;48.556;9.342;2024-03-29T14:40:28;16.60;99.90
21744;DHT22;11034;48.556;9.342;2024-03-29T14:42:55;16.60;99.90
21744;DHT22;11034;48.556;9.342;2024-03-29T14:45:23;16.50;99.90
21744;DHT22;11034;48.556;9.342;2024-03-29T14:47:50;16.60;99.90
21744;DHT22;11034;48.556;9.342;2024-03-29T14:50:18;16.60;99.90
21744;DHT22;11034;48.556;9.342;2024-03-29T14:52:46;16.60;99.90
21744;DHT22;11034;48.556;9.342;2024-03-29T14:55:14;16.60;99.90
21744;DHT22;11034;48.556;9.342;2024-03-29T14:57:41;16.50;99.90
21744;DHT22;11034;48.556;9.342;2024-03-29T15:00:08;16.70;99.90
21744;DHT22;11034;48.556;9.342;2024-03-29T15:02:35;16.70;99.90
21744;DHT22;11034;48.556;9.342;2024-03-29T15:05:03;16.80;99.90
21744;DHT22;11034;48.556;9.342;2024-03-29T15:07:31;16.90;99.90
21744;DHT22;11034;48.556;9.342;2024-03-29T15:10:00;16.90;99.90
21744;DHT22;11034;48.556;9.342;2024-03-29T15:12:30;16.70;99.90
21744;DHT22;11034;48.556;9.342;2024-03-29T15:14:57;16.70;99.90
21744;DHT22;11034;48.556;9.342;2024-03-29T15:17:24;16.80;99.90
21744;DHT22;11034;48.556;9.342;2024-03-29T15:19:52;16.60;99.90
21744;DHT22;11034;48.556;9.342;2024-03-29T15:22:19;16.50;99.90
21744;DHT22;11034;48.556;9.342;2024-03-29T15:24:46;16.50;99.90
21744;DHT22;11034;48.556;9.342;2024-03-29T15:27:14;16.50;99.90
21744;DHT22;11034;48.556;9.342;2024-03-29T15:30:13;16.40;99.90
21744;DHT22;11034;48.556;9.342;2024-03-29T15:32:39;16.30;99.90
21744;DHT22;11034;48.556;9.342;2024-03-29T15:35:07;16.20;99.90
21744;DHT22;11034;48.556;9.342;2024-03-29T15:37:35;16.20;99.90
21744;DHT22;11034;48.556;9.342;2024-03-29T15:40:02;16.10;99.90
21744;DHT22;11034;48.556;9.342;2024-03-29T15:42:31;16.10;99.90